sensor_id;sensor_type;location;lat;lon;timestamp;P1;durP1;ratioP1;P2;durP2;ratioP2
42586;SDS011;28216;53.362;-6.288;2023-07-08T00:00:51;7.05;;;3.53;;
42586;SDS011;28216;53.362;-6.288;2023-07-08T00:03:18;6.28;;;3.65;;
42586;SDS011;28216;53.362;-6.288;2023-07-08T00:05:44;6.35;;;3.15;;
42586;SDS011;28216;53.362;-6.288;2023-07-08T00:08:11;7.72;;;4.20;;
42586;SDS011;28216;53.362;-6.288;2023-07-08T00:10:38;9.23;;;3.72;;
42586;SDS011;28216;53.362;-6.288;2023-07-08T00:13:04;7.25;;;3.63;;
42586;SDS011;28216;53.362;-6.288;2023-07-08T00:15:30;6.72;;;3.25;;
42586;SDS011;28216;53.362;-6.288;2023-07-08T00:17:58;6.15;;;3.50;;
42586;SDS011;28216;53.362;-6.288;2023-07-08T00:22:55;5.68;;;3.22;;
42586;SDS011;28216;53.362;-6.288;2023-07-08T00:25:22;7.15;;;3.25;;
42586;SDS011;28216;53.362;-6.288;2023-07-08T00:27:48;5.35;;;3.10;;
42586;SDS011;28216;53.362;-6.288;2023-07-08T00:30:16;6.50;;;3.30;;
42586;SDS011;28216;53.362;-6.288;2023-07-08T00:32:47;6.53;;;3.20;;
42586;SDS011;28216;53.362;-6.288;2023-07-08T00:35:12;5.50;;;3.40;;
42586;SDS011;28216;53.362;-6.288;2023-07-08T00:37:38;5.63;;;3.50;;
42586;SDS011;28216;53.362;-6.288;2023-07-08T00:40:14;8.10;;;3.28;;
42586;SDS011;28216;53.362;-6.288;2023-07-08T00:42:42;6.72;;;3.33;;
42586;SDS011;28216;53.362;-6.288;2023-07-08T00:45:22;5.13;;;3.63;;
42586;SDS011;28216;53.362;-6.288;2023-07-08T00:48:00;5.53;;;3.28;;
42586;SDS011;28216;53.362;-6.288;2023-07-08T00:50:32;6.22;;;3.40;;
42586;SDS011;28216;53.362;-6.288;2023-07-08T00:53:21;6.82;;;3.28;;
42586;SDS011;28216;53.362;-6.288;2023-07-08T00:55:49;6.53;;;3.58;;
42586;SDS011;28216;53.362;-6.288;2023-07-08T00:58:16;6.18;;;3.60;;
42586;SDS011;28216;53.362;-6.288;2023-07-08T01:00:44;8.60;;;4.22;;
42586;SDS011;28216;53.362;-6.288;2023-07-08T01:03:10;5.18;;;3.50;;
42586;SDS011;28216;53.362;-6.288;2023-07-08T01:05:35;7.57;;;3.67;;
42586;SDS011;28216;53.362;-6.288;2023-07-08T01:08:03;7.55;;;3.85;;
42586;SDS011;28216;53.362;-6.288;2023-07-08T01:10:37;6.10;;;4.05;;
42586;SDS011;28216;53.362;-6.288;2023-07-08T01:13:09;8.65;;;4.28;;
42586;SDS011;28216;53.362;-6.288;2023-07-08T01:15:41;7.10;;;3.83;;
42586;SDS011;28216;53.362;-6.288;2023-07-08T01:18:10;10.57;;;4.10;;
42586;SDS011;28216;53.362;-6.288;2023-07-08T01:20:39;11.40;;;4.25;;
42586;SDS011;28216;53.362;-6.288;2023-07-08T01:23:05;5.50;;;3.90;;
42586;SDS011;28216;53.362;-6.288;2023-07-08T01:25:30;9.23;;;4.40;;
42586;SDS011;28216;53.362;-6.288;2023-07-08T01:27:57;10.02;;;4.13;;
42586;SDS011;28216;53.362;-6.288;2023-07-08T01:30:23;9.07;;;4.60;;
42586;SDS011;28216;53.362;-6.288;2023-07-08T01:32:49;7.70;;;4.57;;
42586;SDS011;28216;53.362;-6.288;2023-07-08T01:35:20;8.65;;;4.78;;
42586;SDS011;28216;53.362;-6.288;2023-07-08T01:38:00;7.97;;;4.43;;
42586;SDS011;28216;53.362;-6.288;2023-07-08T01:42:56;10.38;;;4.60;;
42586;SDS011;28216;53.362;-6.288;2023-07-08T01:45:23;9.38;;;4.65;;
42586;SDS011;28216;53.362;-6.288;2023-07-08T01:48:05;10.23;;;4.43;;
42586;SDS011;28216;53.362;-6.288;2023-07-08T01:50:35;8.48;;;4.50;;
42586;SDS011;28216;53.362;-6.288;2023-07-08T01:53:05;9.50;;;4.88;;
42586;SDS011;28216;53.362;-6.288;2023-07-08T01:55:39;8.82;;;5.20;;
42586;SDS011;28216;53.362;-6.288;2023-07-08T01:58:04;10.57;;;4.53;;
42586;SDS011;28216;53.362;-6.288;2023-07-08T02:00:30;11.13;;;4.80;;
42586;SDS011;28216;53.362;-6.288;2023-07-08T02:02:55;8.80;;;4.88;;
42586;SDS011;28216;53.362;-6.288;2023-07-08T02:05:22;7.72;;;5.00;;
42586;SDS011;28216;53.362;-6.288;2023-07-08T02:07:48;10.02;;;4.80;;
42586;SDS011;28216;53.362;-6.288;2023-07-08T02:10:13;8.73;;;4.97;;
42586;SDS011;28216;53.362;-6.288;2023-07-08T02:12:39;11.07;;;5.30;;
42586;SDS011;28216;53.362;-6.288;2023-07-08T02:15:05;10.32;;;5.13;;
42586;SDS011;28216;53.362;-6.288;2023-07-08T02:17:31;9.25;;;5.30;;
42586;SDS011;28216;53.362;-6.288;2023-07-08T02:19:56;9.13;;;5.07;;
42586;SDS011;28216;53.362;-6.288;2023-07-08T02:22:22;7.45;;;5.00;;
42586;SDS011;28216;53.362;-6.288;2023-07-08T02:24:48;12.02;;;5.20;;
42586;SDS011;28216;53.362;-6.288;2023-07-08T02:27:14;8.93;;;5.25;;
42586;SDS011;28216;53.362;-6.288;2023-07-08T02:29:39;9.93;;;5.40;;
42586;SDS011;28216;53.362;-6.288;2023-07-08T02:32:05;9.80;;;5.20;;
42586;SDS011;28216;53.362;-6.288;2023-07-08T02:34:31;14.68;;;6.10;;
42586;SDS011;28216;53.362;-6.288;2023-07-08T02:36:57;10.63;;;5.00;;
42586;SDS011;28216;53.362;-6.288;2023-07-08T02:39:23;9.52;;;4.88;;
42586;SDS011;28216;53.362;-6.288;2023-07-08T02:41:48;12.70;;;5.38;;
42586;SDS011;28216;53.362;-6.288;2023-07-08T02:44:14;11.75;;;5.40;;
42586;SDS011;28216;53.362;-6.288;2023-07-08T02:46:40;8.20;;;5.05;;
42586;SDS011;28216;53.362;-6.288;2023-07-08T02:49:05;10.13;;;5.10;;
42586;SDS011;28216;53.362;-6.288;2023-07-08T02:51:31;8.30;;;5.20;;
42586;SDS011;28216;53.362;-6.288;2023-07-08T02:53:57;9.52;;;6.00;;
42586;SDS011;28216;53.362;-6.288;2023-07-08T02:56:22;9.05;;;5.60;;
42586;SDS011;28216;53.362;-6.288;2023-07-08T02:58:48;9.70;;;5.10;;
42586;SDS011;28216;53.362;-6.288;2023-07-08T03:01:14;11.27;;;5.47;;
42586;SDS011;28216;53.362;-6.288;2023-07-08T03:03:46;10.85;;;5.75;;
42586;SDS011;28216;53.362;-6.288;2023-07-08T03:06:12;8.80;;;5.25;;
42586;SDS011;28216;53.362;-6.288;2023-07-08T03:08:38;12.43;;;6.13;;
42586;SDS011;28216;53.362;-6.288;2023-07-08T03:11:04;8.95;;;5.72;;
42586;SDS011;28216;53.362;-6.288;2023-07-08T03:13:32;15.25;;;5.82;;
42586;SDS011;28216;53.362;-6.288;2023-07-08T03:15:59;11.98;;;5.63;;
42586;SDS011;28216;53.362;-6.288;2023-07-08T03:18:25;16.58;;;6.25;;
42586;SDS011;28216;53.362;-6.288;2023-07-08T03:20:52;10.68;;;5.50;;
42586;SDS011;28216;53.362;-6.288;2023-07-08T03:23:18;12.25;;;5.93;;
42586;SDS011;28216;53.362;-6.288;2023-07-08T03:25:44;12.63;;;5.65;;
42586;SDS011;28216;53.362;-6.288;2023-07-08T03:28:10;11.85;;;5.80;;
42586;SDS011;28216;53.362;-6.288;2023-07-08T03:30:43;12.38;;;6.03;;
42586;SDS011;28216;53.362;-6.288;2023-07-08T03:33:10;11.65;;;6.20;;
42586;SDS011;28216;53.362;-6.288;2023-07-08T03:35:36;10.57;;;5.72;;
42586;SDS011;28216;53.362;-6.288;2023-07-08T03:38:04;14.05;;;5.72;;
42586;SDS011;28216;53.362;-6.288;2023-07-08T03:40:29;10.00;;;5.70;;
42586;SDS011;28216;53.362;-6.288;2023-07-08T03:42:55;9.20;;;5.82;;
42586;SDS011;28216;53.362;-6.288;2023-07-08T03:45:21;12.23;;;5.80;;
42586;SDS011;28216;53.362;-6.288;2023-07-08T03:47:46;15.57;;;6.32;;
42586;SDS011;28216;53.362;-6.288;2023-07-08T03:50:19;13.48;;;6.15;;
42586;SDS011;28216;53.362;-6.288;2023-07-08T03:52:47;12.63;;;5.45;;
42586;SDS011;28216;53.362;-6.288;2023-07-08T03:55:13;12.80;;;6.07;;
42586;SDS011;28216;53.362;-6.288;2023-07-08T03:57:39;10.60;;;5.38;;
42586;SDS011;28216;53.362;-6.288;2023-07-08T04:00:05;12.38;;;5.80;;
42586;SDS011;28216;53.362;-6.288;2023-07-08T04:02:34;10.30;;;5.30;;
42586;SDS011;28216;53.362;-6.288;2023-07-08T04:05:00;9.05;;;5.70;;
42586;SDS011;28216;53.362;-6.288;2023-07-08T04:07:26;12.90;;;6.28;;
42586;SDS011;28216;53.362;-6.288;2023-07-08T04:09:51;14.00;;;6.20;;
42586;SDS011;28216;53.362;-6.288;2023-07-08T04:12:17;12.38;;;6.28;;
42586;SDS011;28216;53.362;-6.288;2023-07-08T04:14:43;13.20;;;6.32;;
42586;SDS011;28216;53.362;-6.288;2023-07-08T04:17:09;14.85;;;6.20;;
42586;SDS011;28216;53.362;-6.288;2023-07-08T04:19:35;13.55;;;6.45;;
42586;SDS011;28216;53.362;-6.288;2023-07-08T04:22:01;12.52;;;6.72;;
42586;SDS011;28216;53.362;-6.288;2023-07-08T04:24:27;11.45;;;6.88;;
42586;SDS011;28216;53.362;-6.288;2023-07-08T04:26:53;11.07;;;6.43;;
42586;SDS011;28216;53.362;-6.288;2023-07-08T04:29:21;11.18;;;6.15;;
42586;SDS011;28216;53.362;-6.288;2023-07-08T04:31:47;12.20;;;6.20;;
42586;SDS011;28216;53.362;-6.288;2023-07-08T04:34:13;17.92;;;5.93;;
42586;SDS011;28216;53.362;-6.288;2023-07-08T04:36:40;12.07;;;6.38;;
42586;SDS011;28216;53.362;-6.288;2023-07-08T04:39:06;13.95;;;6.32;;
42586;SDS011;28216;53.362;-6.288;2023-07-08T04:41:33;14.23;;;6.40;;
42586;SDS011;28216;53.362;-6.288;2023-07-08T04:43:59;14.25;;;6.47;;
42586;SDS011;28216;53.362;-6.288;2023-07-08T04:46:46;13.43;;;6.57;;
42586;SDS011;28216;53.362;-6.288;2023-07-08T04:49:16;15.18;;;6.38;;
42586;SDS011;28216;53.362;-6.288;2023-07-08T04:51:42;14.55;;;6.10;;
42586;SDS011;28216;53.362;-6.288;2023-07-08T04:54:07;16.85;;;6.50;;
42586;SDS011;28216;53.362;-6.288;2023-07-08T04:59:05;15.77;;;6.88;;
42586;SDS011;28216;53.362;-6.288;2023-07-08T05:01:34;14.63;;;6.82;;
42586;SDS011;28216;53.362;-6.288;2023-07-08T05:03:59;16.35;;;6.65;;
42586;SDS011;28216;53.362;-6.288;2023-07-08T05:06:25;15.35;;;6.80;;
42586;SDS011;28216;53.362;-6.288;2023-07-08T05:08:51;13.27;;;6.70;;
42586;SDS011;28216;53.362;-6.288;2023-07-08T05:11:17;17.88;;;7.10;;
42586;SDS011;28216;53.362;-6.288;2023-07-08T05:13:42;23.85;;;7.03;;
42586;SDS011;28216;53.362;-6.288;2023-07-08T05:16:07;16.25;;;7.82;;
42586;SDS011;28216;53.362;-6.288;2023-07-08T05:18:33;16.73;;;7.45;;
42586;SDS011;28216;53.362;-6.288;2023-07-08T05:20:58;16.00;;;7.50;;
42586;SDS011;28216;53.362;-6.288;2023-07-08T05:23:24;19.00;;;7.03;;
42586;SDS011;28216;53.362;-6.288;2023-07-08T05:25:49;13.65;;;6.93;;
42586;SDS011;28216;53.362;-6.288;2023-07-08T05:28:15;25.90;;;7.53;;
42586;SDS011;28216;53.362;-6.288;2023-07-08T05:30:40;18.40;;;7.20;;
42586;SDS011;28216;53.362;-6.288;2023-07-08T05:33:06;17.92;;;7.65;;
42586;SDS011;28216;53.362;-6.288;2023-07-08T05:35:32;21.00;;;7.50;;
42586;SDS011;28216;53.362;-6.288;2023-07-08T05:37:58;24.02;;;7.85;;
42586;SDS011;28216;53.362;-6.288;2023-07-08T05:40:24;21.30;;;7.28;;
42586;SDS011;28216;53.362;-6.288;2023-07-08T05:42:49;18.90;;;7.15;;
42586;SDS011;28216;53.362;-6.288;2023-07-08T05:45:15;20.08;;;7.45;;
42586;SDS011;28216;53.362;-6.288;2023-07-08T05:47:40;19.63;;;7.65;;
42586;SDS011;28216;53.362;-6.288;2023-07-08T05:50:06;26.63;;;7.80;;
42586;SDS011;28216;53.362;-6.288;2023-07-08T05:52:32;20.60;;;7.50;;
42586;SDS011;28216;53.362;-6.288;2023-07-08T05:54:57;17.50;;;7.38;;
42586;SDS011;28216;53.362;-6.288;2023-07-08T05:57:23;25.40;;;8.13;;
42586;SDS011;28216;53.362;-6.288;2023-07-08T05:59:48;19.88;;;8.75;;
42586;SDS011;28216;53.362;-6.288;2023-07-08T06:02:16;24.02;;;7.32;;
42586;SDS011;28216;53.362;-6.288;2023-07-08T06:04:44;22.70;;;7.43;;
42586;SDS011;28216;53.362;-6.288;2023-07-08T06:07:12;20.30;;;7.22;;
42586;SDS011;28216;53.362;-6.288;2023-07-08T06:09:38;22.13;;;7.68;;
42586;SDS011;28216;53.362;-6.288;2023-07-08T06:12:04;22.17;;;7.40;;
42586;SDS011;28216;53.362;-6.288;2023-07-08T06:14:32;16.52;;;6.32;;
42586;SDS011;28216;53.362;-6.288;2023-07-08T06:16:58;19.55;;;5.72;;
42586;SDS011;28216;53.362;-6.288;2023-07-08T06:19:23;13.00;;;5.60;;
42586;SDS011;28216;53.362;-6.288;2023-07-08T06:21:49;13.55;;;4.70;;
42586;SDS011;28216;53.362;-6.288;2023-07-08T06:24:15;13.18;;;4.28;;
42586;SDS011;28216;53.362;-6.288;2023-07-08T06:26:43;7.72;;;4.28;;
42586;SDS011;28216;53.362;-6.288;2023-07-08T06:29:09;11.40;;;4.35;;
42586;SDS011;28216;53.362;-6.288;2023-07-08T06:31:35;13.75;;;4.55;;
42586;SDS011;28216;53.362;-6.288;2023-07-08T06:34:00;10.48;;;4.25;;
42586;SDS011;28216;53.362;-6.288;2023-07-08T06:36:26;11.55;;;4.95;;
42586;SDS011;28216;53.362;-6.288;2023-07-08T06:38:52;14.98;;;4.10;;
42586;SDS011;28216;53.362;-6.288;2023-07-08T06:41:18;9.82;;;3.45;;
42586;SDS011;28216;53.362;-6.288;2023-07-08T06:43:43;13.82;;;3.97;;
42586;SDS011;28216;53.362;-6.288;2023-07-08T06:46:09;12.55;;;3.22;;
42586;SDS011;28216;53.362;-6.288;2023-07-08T06:48:47;10.80;;;3.50;;
42586;SDS011;28216;53.362;-6.288;2023-07-08T06:51:13;13.80;;;4.03;;
42586;SDS011;28216;53.362;-6.288;2023-07-08T06:53:38;8.43;;;3.58;;
42586;SDS011;28216;53.362;-6.288;2023-07-08T06:56:03;13.43;;;3.63;;
42586;SDS011;28216;53.362;-6.288;2023-07-08T06:58:29;12.27;;;3.10;;
42586;SDS011;28216;53.362;-6.288;2023-07-08T07:00:54;11.65;;;3.28;;
42586;SDS011;28216;53.362;-6.288;2023-07-08T07:03:20;12.32;;;3.33;;
42586;SDS011;28216;53.362;-6.288;2023-07-08T07:05:46;13.05;;;4.07;;
42586;SDS011;28216;53.362;-6.288;2023-07-08T07:08:11;12.02;;;2.83;;
42586;SDS011;28216;53.362;-6.288;2023-07-08T07:10:40;11.45;;;3.30;;
42586;SDS011;28216;53.362;-6.288;2023-07-08T07:13:05;13.65;;;3.45;;
42586;SDS011;28216;53.362;-6.288;2023-07-08T07:15:30;13.07;;;3.35;;
42586;SDS011;28216;53.362;-6.288;2023-07-08T07:17:57;10.70;;;3.03;;
42586;SDS011;28216;53.362;-6.288;2023-07-08T07:20:23;12.35;;;3.00;;
42586;SDS011;28216;53.362;-6.288;2023-07-08T07:22:49;15.50;;;3.53;;
42586;SDS011;28216;53.362;-6.288;2023-07-08T07:25:16;12.20;;;3.58;;
42586;SDS011;28216;53.362;-6.288;2023-07-08T07:27:45;12.25;;;3.28;;
42586;SDS011;28216;53.362;-6.288;2023-07-08T07:30:16;12.35;;;3.05;;
42586;SDS011;28216;53.362;-6.288;2023-07-08T07:32:58;12.95;;;3.30;;
42586;SDS011;28216;53.362;-6.288;2023-07-08T07:35:25;15.73;;;3.47;;
42586;SDS011;28216;53.362;-6.288;2023-07-08T07:37:54;13.38;;;2.92;;
42586;SDS011;28216;53.362;-6.288;2023-07-08T07:40:19;10.25;;;2.92;;
42586;SDS011;28216;53.362;-6.288;2023-07-08T07:42:45;10.90;;;3.05;;
42586;SDS011;28216;53.362;-6.288;2023-07-08T07:45:12;10.10;;;3.20;;
42586;SDS011;28216;53.362;-6.288;2023-07-08T07:47:38;16.58;;;3.17;;
42586;SDS011;28216;53.362;-6.288;2023-07-08T07:50:05;11.77;;;3.05;;
42586;SDS011;28216;53.362;-6.288;2023-07-08T07:52:35;12.65;;;3.10;;
42586;SDS011;28216;53.362;-6.288;2023-07-08T07:55:01;10.18;;;2.65;;
42586;SDS011;28216;53.362;-6.288;2023-07-08T07:57:38;12.50;;;3.03;;
42586;SDS011;28216;53.362;-6.288;2023-07-08T08:00:19;15.23;;;2.92;;
42586;SDS011;28216;53.362;-6.288;2023-07-08T08:02:50;13.57;;;2.85;;
42586;SDS011;28216;53.362;-6.288;2023-07-08T08:05:15;10.27;;;2.55;;
42586;SDS011;28216;53.362;-6.288;2023-07-08T08:07:42;10.27;;;2.30;;
42586;SDS011;28216;53.362;-6.288;2023-07-08T08:10:08;9.73;;;2.40;;
42586;SDS011;28216;53.362;-6.288;2023-07-08T08:12:37;9.48;;;2.67;;
42586;SDS011;28216;53.362;-6.288;2023-07-08T08:15:03;6.57;;;2.25;;
42586;SDS011;28216;53.362;-6.288;2023-07-08T08:17:31;6.20;;;2.15;;
42586;SDS011;28216;53.362;-6.288;2023-07-08T08:19:59;6.88;;;2.00;;
42586;SDS011;28216;53.362;-6.288;2023-07-08T08:22:25;6.38;;;2.28;;
42586;SDS011;28216;53.362;-6.288;2023-07-08T08:25:00;4.00;;;1.80;;
42586;SDS011;28216;53.362;-6.288;2023-07-08T08:27:27;5.73;;;2.30;;
42586;SDS011;28216;53.362;-6.288;2023-07-08T08:29:52;5.63;;;1.80;;
42586;SDS011;28216;53.362;-6.288;2023-07-08T08:32:17;6.00;;;1.65;;
42586;SDS011;28216;53.362;-6.288;2023-07-08T08:34:43;7.85;;;2.38;;
42586;SDS011;28216;53.362;-6.288;2023-07-08T08:37:10;8.68;;;2.20;;
42586;SDS011;28216;53.362;-6.288;2023-07-08T08:39:38;6.18;;;2.20;;
42586;SDS011;28216;53.362;-6.288;2023-07-08T08:42:22;7.97;;;1.90;;
42586;SDS011;28216;53.362;-6.288;2023-07-08T08:45:15;5.13;;;1.63;;
42586;SDS011;28216;53.362;-6.288;2023-07-08T08:48:05;6.15;;;1.90;;
42586;SDS011;28216;53.362;-6.288;2023-07-08T08:53:11;8.63;;;2.37;;
42586;SDS011;28216;53.362;-6.288;2023-07-08T08:55:39;13.63;;;4.15;;
42586;SDS011;28216;53.362;-6.288;2023-07-08T09:03:34;5.05;;;1.85;;
42586;SDS011;28216;53.362;-6.288;2023-07-08T09:06:31;7.47;;;1.88;;
42586;SDS011;28216;53.362;-6.288;2023-07-08T09:09:03;9.10;;;1.90;;
42586;SDS011;28216;53.362;-6.288;2023-07-08T09:11:52;7.45;;;2.08;;
42586;SDS011;28216;53.362;-6.288;2023-07-08T09:14:28;8.93;;;2.00;;
42586;SDS011;28216;53.362;-6.288;2023-07-08T09:17:05;8.80;;;2.25;;
42586;SDS011;28216;53.362;-6.288;2023-07-08T09:19:40;7.57;;;1.88;;
42586;SDS011;28216;53.362;-6.288;2023-07-08T09:22:14;5.53;;;1.90;;
42586;SDS011;28216;53.362;-6.288;2023-07-08T09:24:51;6.30;;;1.88;;
42586;SDS011;28216;53.362;-6.288;2023-07-08T09:27:18;5.43;;;1.80;;
42586;SDS011;28216;53.362;-6.288;2023-07-08T09:29:46;7.45;;;2.20;;
42586;SDS011;28216;53.362;-6.288;2023-07-08T09:32:16;4.57;;;1.85;;
42586;SDS011;28216;53.362;-6.288;2023-07-08T09:34:51;5.60;;;2.05;;
42586;SDS011;28216;53.362;-6.288;2023-07-08T09:37:21;7.07;;;2.03;;
42586;SDS011;28216;53.362;-6.288;2023-07-08T09:39:48;4.68;;;1.92;;
42586;SDS011;28216;53.362;-6.288;2023-07-08T09:42:14;7.40;;;2.05;;
42586;SDS011;28216;53.362;-6.288;2023-07-08T09:44:40;4.82;;;1.80;;
42586;SDS011;28216;53.362;-6.288;2023-07-08T09:47:20;6.68;;;1.75;;
42586;SDS011;28216;53.362;-6.288;2023-07-08T09:49:53;5.50;;;2.35;;
42586;SDS011;28216;53.362;-6.288;2023-07-08T09:52:19;5.95;;;1.70;;
42586;SDS011;28216;53.362;-6.288;2023-07-08T09:54:45;4.97;;;1.70;;
42586;SDS011;28216;53.362;-6.288;2023-07-08T09:59:56;4.00;;;1.70;;
42586;SDS011;28216;53.362;-6.288;2023-07-08T10:02:25;5.55;;;1.73;;
42586;SDS011;28216;53.362;-6.288;2023-07-08T10:04:56;3.17;;;1.60;;
42586;SDS011;28216;53.362;-6.288;2023-07-08T10:07:27;5.32;;;1.90;;
42586;SDS011;28216;53.362;-6.288;2023-07-08T10:09:56;4.20;;;1.67;;
42586;SDS011;28216;53.362;-6.288;2023-07-08T10:12:26;4.32;;;1.73;;
42586;SDS011;28216;53.362;-6.288;2023-07-08T10:14:54;5.40;;;1.92;;
42586;SDS011;28216;53.362;-6.288;2023-07-08T10:17:24;4.78;;;1.50;;
42586;SDS011;28216;53.362;-6.288;2023-07-08T10:19:50;3.33;;;1.48;;
42586;SDS011;28216;53.362;-6.288;2023-07-08T10:22:33;5.13;;;1.83;;
42586;SDS011;28216;53.362;-6.288;2023-07-08T10:25:19;4.28;;;1.77;;
42586;SDS011;28216;53.362;-6.288;2023-07-08T10:30:28;4.00;;;1.50;;
42586;SDS011;28216;53.362;-6.288;2023-07-08T10:33:14;4.57;;;1.65;;
42586;SDS011;28216;53.362;-6.288;2023-07-08T10:49:56;6.15;;;2.00;;
42586;SDS011;28216;53.362;-6.288;2023-07-08T10:55:28;7.88;;;2.35;;
42586;SDS011;28216;53.362;-6.288;2023-07-08T11:01:21;4.53;;;2.03;;
42586;SDS011;28216;53.362;-6.288;2023-07-08T11:06:47;3.97;;;1.83;;
42586;SDS011;28216;53.362;-6.288;2023-07-08T11:09:24;4.75;;;1.88;;
42586;SDS011;28216;53.362;-6.288;2023-07-08T11:12:00;5.03;;;1.60;;
42586;SDS011;28216;53.362;-6.288;2023-07-08T11:17:13;5.18;;;1.80;;
42586;SDS011;28216;53.362;-6.288;2023-07-08T11:19:48;6.00;;;2.05;;
42586;SDS011;28216;53.362;-6.288;2023-07-08T11:22:18;6.97;;;1.85;;
42586;SDS011;28216;53.362;-6.288;2023-07-08T11:24:47;6.55;;;1.90;;
42586;SDS011;28216;53.362;-6.288;2023-07-08T11:30:06;6.40;;;2.30;;
42586;SDS011;28216;53.362;-6.288;2023-07-08T11:32:39;7.03;;;1.90;;
42586;SDS011;28216;53.362;-6.288;2023-07-08T11:35:13;6.13;;;2.13;;
42586;SDS011;28216;53.362;-6.288;2023-07-08T11:38:05;5.53;;;1.83;;
42586;SDS011;28216;53.362;-6.288;2023-07-08T11:40:36;4.97;;;2.10;;
42586;SDS011;28216;53.362;-6.288;2023-07-08T11:43:48;6.28;;;2.00;;
42586;SDS011;28216;53.362;-6.288;2023-07-08T11:46:24;9.32;;;2.40;;
42586;SDS011;28216;53.362;-6.288;2023-07-08T11:48:53;5.57;;;1.80;;
42586;SDS011;28216;53.362;-6.288;2023-07-08T11:51:41;6.72;;;2.17;;
42586;SDS011;28216;53.362;-6.288;2023-07-08T11:54:13;6.03;;;1.88;;
42586;SDS011;28216;53.362;-6.288;2023-07-08T11:59:23;7.63;;;2.10;;
42586;SDS011;28216;53.362;-6.288;2023-07-08T12:07:17;5.05;;;1.88;;
42586;SDS011;28216;53.362;-6.288;2023-07-08T12:09:47;5.53;;;2.03;;
42586;SDS011;28216;53.362;-6.288;2023-07-08T12:12:17;6.45;;;2.15;;
42586;SDS011;28216;53.362;-6.288;2023-07-08T12:14:47;5.82;;;2.00;;
42586;SDS011;28216;53.362;-6.288;2023-07-08T12:17:14;5.80;;;2.33;;
42586;SDS011;28216;53.362;-6.288;2023-07-08T12:19:41;4.15;;;2.20;;
42586;SDS011;28216;53.362;-6.288;2023-07-08T12:22:10;4.75;;;1.70;;
42586;SDS011;28216;53.362;-6.288;2023-07-08T12:24:37;5.10;;;2.00;;
42586;SDS011;28216;53.362;-6.288;2023-07-08T12:27:03;7.65;;;1.80;;
42586;SDS011;28216;53.362;-6.288;2023-07-08T12:29:29;5.55;;;1.88;;
42586;SDS011;28216;53.362;-6.288;2023-07-08T12:31:58;4.45;;;2.00;;
42586;SDS011;28216;53.362;-6.288;2023-07-08T12:34:23;6.13;;;2.10;;
42586;SDS011;28216;53.362;-6.288;2023-07-08T12:36:51;5.90;;;2.08;;
42586;SDS011;28216;53.362;-6.288;2023-07-08T12:39:16;4.57;;;1.88;;
42586;SDS011;28216;53.362;-6.288;2023-07-08T12:41:42;3.78;;;2.00;;
42586;SDS011;28216;53.362;-6.288;2023-07-08T12:44:15;6.50;;;1.88;;
42586;SDS011;28216;53.362;-6.288;2023-07-08T12:46:47;9.25;;;2.85;;
42586;SDS011;28216;53.362;-6.288;2023-07-08T12:49:14;5.97;;;2.17;;
42586;SDS011;28216;53.362;-6.288;2023-07-08T12:51:42;6.43;;;2.35;;
42586;SDS011;28216;53.362;-6.288;2023-07-08T12:54:09;6.15;;;2.25;;
42586;SDS011;28216;53.362;-6.288;2023-07-08T12:56:36;7.50;;;2.35;;
42586;SDS011;28216;53.362;-6.288;2023-07-08T12:59:03;7.55;;;2.35;;
42586;SDS011;28216;53.362;-6.288;2023-07-08T13:01:30;8.02;;;2.80;;
42586;SDS011;28216;53.362;-6.288;2023-07-08T13:04:02;6.47;;;1.90;;
42586;SDS011;28216;53.362;-6.288;2023-07-08T13:06:31;6.40;;;1.88;;
42586;SDS011;28216;53.362;-6.288;2023-07-08T13:09:14;6.10;;;1.90;;
42586;SDS011;28216;53.362;-6.288;2023-07-08T13:11:58;6.43;;;1.77;;
42586;SDS011;28216;53.362;-6.288;2023-07-08T13:14:28;7.30;;;2.10;;
42586;SDS011;28216;53.362;-6.288;2023-07-08T13:16:53;6.55;;;1.95;;
42586;SDS011;28216;53.362;-6.288;2023-07-08T13:19:19;4.57;;;1.70;;
42586;SDS011;28216;53.362;-6.288;2023-07-08T13:21:45;4.57;;;2.22;;
42586;SDS011;28216;53.362;-6.288;2023-07-08T13:24:12;5.05;;;1.80;;
42586;SDS011;28216;53.362;-6.288;2023-07-08T13:26:38;4.53;;;1.73;;
42586;SDS011;28216;53.362;-6.288;2023-07-08T13:29:06;5.65;;;1.80;;
42586;SDS011;28216;53.362;-6.288;2023-07-08T13:31:38;4.32;;;1.73;;
42586;SDS011;28216;53.362;-6.288;2023-07-08T13:34:09;4.18;;;1.65;;
42586;SDS011;28216;53.362;-6.288;2023-07-08T13:36:40;3.70;;;1.58;;
42586;SDS011;28216;53.362;-6.288;2023-07-08T13:39:09;4.18;;;1.48;;
42586;SDS011;28216;53.362;-6.288;2023-07-08T13:41:44;5.15;;;1.83;;
42586;SDS011;28216;53.362;-6.288;2023-07-08T13:44:10;5.85;;;1.67;;
42586;SDS011;28216;53.362;-6.288;2023-07-08T13:46:37;2.58;;;1.50;;
42586;SDS011;28216;53.362;-6.288;2023-07-08T13:51:48;3.13;;;1.60;;
42586;SDS011;28216;53.362;-6.288;2023-07-08T13:54:23;5.15;;;1.63;;
42586;SDS011;28216;53.362;-6.288;2023-07-08T13:59:23;2.15;;;1.60;;
42586;SDS011;28216;53.362;-6.288;2023-07-08T14:01:51;5.75;;;1.80;;
42586;SDS011;28216;53.362;-6.288;2023-07-08T14:04:19;3.95;;;1.80;;
42586;SDS011;28216;53.362;-6.288;2023-07-08T14:06:49;3.58;;;1.55;;
42586;SDS011;28216;53.362;-6.288;2023-07-08T15:04:31;3.47;;;1.85;;
42586;SDS011;28216;53.362;-6.288;2023-07-08T15:06:57;4.63;;;1.77;;
42586;SDS011;28216;53.362;-6.288;2023-07-08T15:09:24;3.22;;;1.50;;
42586;SDS011;28216;53.362;-6.288;2023-07-08T15:11:50;6.30;;;1.88;;
42586;SDS011;28216;53.362;-6.288;2023-07-08T15:16:40;2.83;;;1.50;;
42586;SDS011;28216;53.362;-6.288;2023-07-08T15:19:09;4.45;;;1.83;;
42586;SDS011;28216;53.362;-6.288;2023-07-08T15:21:36;4.03;;;1.90;;
42586;SDS011;28216;53.362;-6.288;2023-07-08T15:24:02;5.50;;;1.90;;
42586;SDS011;28216;53.362;-6.288;2023-07-08T15:26:28;5.13;;;1.80;;
42586;SDS011;28216;53.362;-6.288;2023-07-08T15:28:53;5.68;;;1.80;;
42586;SDS011;28216;53.362;-6.288;2023-07-08T15:31:20;5.93;;;1.80;;
42586;SDS011;28216;53.362;-6.288;2023-07-08T15:33:51;4.43;;;2.00;;
42586;SDS011;28216;53.362;-6.288;2023-07-08T15:36:18;6.25;;;1.92;;
42586;SDS011;28216;53.362;-6.288;2023-07-08T15:38:43;5.20;;;2.20;;
42586;SDS011;28216;53.362;-6.288;2023-07-08T15:41:30;6.63;;;2.38;;
42586;SDS011;28216;53.362;-6.288;2023-07-08T15:43:55;4.20;;;1.90;;
42586;SDS011;28216;53.362;-6.288;2023-07-08T15:46:22;4.43;;;2.10;;
42586;SDS011;28216;53.362;-6.288;2023-07-08T15:48:57;6.07;;;2.15;;
42586;SDS011;28216;53.362;-6.288;2023-07-08T15:51:22;6.55;;;1.90;;
42586;SDS011;28216;53.362;-6.288;2023-07-08T15:53:48;6.13;;;2.00;;
42586;SDS011;28216;53.362;-6.288;2023-07-08T15:56:15;5.35;;;2.15;;
42586;SDS011;28216;53.362;-6.288;2023-07-08T15:58:44;4.18;;;1.80;;
42586;SDS011;28216;53.362;-6.288;2023-07-08T16:07:53;5.93;;;2.10;;
42586;SDS011;28216;53.362;-6.288;2023-07-08T16:10:20;6.25;;;2.10;;
42586;SDS011;28216;53.362;-6.288;2023-07-08T16:12:58;5.45;;;2.15;;
42586;SDS011;28216;53.362;-6.288;2023-07-08T16:15:31;5.38;;;2.22;;
42586;SDS011;28216;53.362;-6.288;2023-07-08T16:17:59;4.65;;;2.03;;
42586;SDS011;28216;53.362;-6.288;2023-07-08T16:20:26;4.85;;;2.10;;
42586;SDS011;28216;53.362;-6.288;2023-07-08T16:22:53;5.07;;;2.88;;
42586;SDS011;28216;53.362;-6.288;2023-07-08T16:27:57;4.63;;;1.77;;
42586;SDS011;28216;53.362;-6.288;2023-07-08T16:30:26;5.45;;;2.00;;
42586;SDS011;28216;53.362;-6.288;2023-07-08T16:33:03;4.20;;;1.90;;
42586;SDS011;28216;53.362;-6.288;2023-07-08T16:35:28;6.20;;;2.28;;
42586;SDS011;28216;53.362;-6.288;2023-07-08T16:37:54;3.92;;;1.90;;
42586;SDS011;28216;53.362;-6.288;2023-07-08T16:40:21;6.53;;;1.95;;
42586;SDS011;28216;53.362;-6.288;2023-07-08T16:42:49;6.13;;;2.35;;
42586;SDS011;28216;53.362;-6.288;2023-07-08T16:45:17;5.45;;;1.95;;
42586;SDS011;28216;53.362;-6.288;2023-07-08T16:47:44;6.60;;;2.10;;